Time;durP1;ratioP1;P1;durP2;ratioP2;P2;SDS_P1;SDS_P2;PMS_P1;PMS_P2;Temp;Humidity;BMP_temperature;BMP_pressure;BME280_temperature;BME280_humidity;BME280_pressure;Samples;Min_cycle;Max_cycle;Signal;HPM_P1;HPM_P2
2024/01/12 00:00:30;;;;;;;;;31.25;28.75;;;;;;;;5003947;28;45932;-77
2024/01/12 00:02:55;;;;;;;;;35.00;33.75;;;;;;;;5021566;28;45211;-77
2024/01/12 00:05:21;;;;;;;;;30.00;28.50;;;;;;;;5021312;28;45269;-77
2024/01/12 00:07:46;;;;;;;;;29.00;25.25;;;;;;;;5020654;28;45516;-78
2024/01/12 00:10:11;;;;;;;;;25.50;24.00;;;;;;;;5023310;28;45457;-77
2024/01/12 00:12:36;;;;;;;;;28.75;28.75;;;;;;;;5020379;28;46371;-78
2024/01/12 00:15:03;;;;;;;;;30.50;27.25;;;;;;;;5003535;28;45520;-78
2024/01/12 00:17:28;;;;;;;;;25.75;25.75;;;;;;;;5028880;28;45281;-77
2024/01/12 00:19:53;;;;;;;;;30.25;26.50;;;;;;;;5010355;28;46429;-77
2024/01/12 00:22:18;;;;;;;;;29.00;25.00;;;;;;;;5006236;28;47204;-78
2024/01/12 00:24:43;;;;;;;;;29.50;28.50;;;;;;;;5023551;28;45333;-77
2024/01/12 00:27:09;;;;;;;;;20.75;20.50;;;;;;;;5022657;28;45297;-78
2024/01/12 00:29:34;;;;;;;;;20.75;20.75;;;;;;;;5005268;28;46017;-78
2024/01/12 00:31:59;;;;;;;;;23.75;23.00;;;;;;;;5003754;28;48068;-77
2024/01/12 00:34:24;;;;;;;;;23.75;23.75;;;;;;;;5022486;28;45314;-78
2024/01/12 00:36:53;;;;;;;;;21.75;20.50;;;;;;;;5023376;28;45574;-79
2024/01/12 00:39:18;;;;;;;;;19.75;18.25;;;;;;;;5022816;28;45433;-78
2024/01/12 00:41:43;;;;;;;;;22.75;21.50;;;;;;;;5021372;28;45233;-78
2024/01/12 00:44:09;;;;;;;;;23.25;23.25;;;;;;;;5026377;28;45344;-78
2024/01/12 00:46:34;;;;;;;;;23.25;23.25;;;;;;;;5003946;28;45239;-79
2024/01/12 00:48:59;;;;;;;;;30.00;25.25;;;;;;;;5026432;28;45232;-79
2024/01/12 00:51:25;;;;;;;;;22.00;21.50;;;;;;;;5004385;28;47998;-78
2024/01/12 00:53:50;;;;;;;;;24.25;19.75;;;;;;;;5024776;28;45322;-78
2024/01/12 00:56:15;;;;;;;;;19.50;18.50;;;;;;;;5008212;28;45383;-78
2024/01/12 00:58:40;;;;;;;;;25.50;23.00;;;;;;;;5009715;28;46050;-78
2024/01/12 01:01:06;;;;;;;;;21.50;20.50;;;;;;;;5014672;28;48723;-79
2024/01/12 01:03:31;;;;;;;;;17.75;15.75;;;;;;;;5017094;28;45821;-79
2024/01/12 01:05:56;;;;;;;;;19.50;19.25;;;;;;;;5033814;28;45230;-77
2024/01/12 01:08:21;;;;;;;;;19.75;15.75;;;;;;;;5016990;28;45930;-80
2024/01/12 01:10:46;;;;;;;;;17.50;15.50;;;;;;;;5016763;28;46798;-79
2024/01/12 01:13:12;;;;;;;;;17.50;15.75;;;;;;;;5017799;28;45248;-79
2024/01/12 01:15:38;;;;;;;;;20.00;18.50;;;;;;;;5036644;28;44796;-79
2024/01/12 01:18:03;;;;;;;;;19.75;16.50;;;;;;;;5038626;28;45291;-79
2024/01/12 01:20:28;;;;;;;;;20.50;17.00;;;;;;;;5035758;28;45265;-79
2024/01/12 01:22:54;;;;;;;;;20.25;19.50;;;;;;;;5037267;28;45283;-79
2024/01/12 01:25:19;;;;;;;;;16.25;15.00;;;;;;;;5038932;28;45692;-80
2024/01/12 01:27:44;;;;;;;;;19.50;19.50;;;;;;;;5021223;28;46021;-80
2024/01/12 01:30:10;;;;;;;;;17.00;15.50;;;;;;;;5040164;28;45619;-80
2024/01/12 01:32:35;;;;;;;;;15.75;12.25;;;;;;;;5040571;28;45242;-79
2024/01/12 01:35:00;;;;;;;;;19.00;18.75;;;;;;;;5042979;28;44610;-80
2024/01/12 01:37:25;;;;;;;;;19.00;19.00;;;;;;;;5043988;28;44633;-80
2024/01/12 01:39:50;;;;;;;;;20.00;16.25;;;;;;;;5043821;28;44954;-80
2024/01/12 01:44:51;;;;;;;;;17.25;15.50;;;;;;;;5418953;22;45763;-79
2024/01/12 01:47:16;;;;;;;;;15.50;15.50;;;;;;;;5207578;22;46491;-78
2024/01/12 01:52:17;;;;;;;;;21.75;19.00;;;;;;;;6055767;22;46522;-78
2024/01/12 01:54:43;;;;;;;;;9.75;6.50;;;;;;;;5083521;28;44658;-79
2024/01/12 01:57:09;;;;;;;;;14.75;14.50;;;;;;;;5080703;28;45263;-79
2024/01/12 01:59:35;;;;;;;;;17.25;15.75;;;;;;;;5079281;28;45585;-79
2024/01/12 02:02:00;;;;;;;;;18.33;17.33;;;;;;;;5078647;28;45321;-79
2024/01/12 02:04:25;;;;;;;;;14.33;14.33;;;;;;;;5057539;28;44741;-79
2024/01/12 02:06:51;;;;;;;;;17.00;15.25;;;;;;;;5055511;28;45911;-79
2024/01/12 02:09:16;;;;;;;;;12.00;10.67;;;;;;;;5072410;28;45279;-80
2024/01/12 02:11:41;;;;;;;;;16.33;15.67;;;;;;;;5066643;28;45397;-80
2024/01/12 02:14:08;;;;;;;;;14.00;13.00;;;;;;;;5068329;28;45361;-80
2024/01/12 02:16:36;;;;;;;;;11.67;11.67;;;;;;;;5066174;28;45372;-79
2024/01/12 02:19:01;;;;;;;;;9.67;6.67;;;;;;;;5063980;28;45646;-79
2024/01/12 02:21:27;;;;;;;;;15.67;15.00;;;;;;;;5046993;28;45235;-80
2024/01/12 02:23:52;;;;;;;;;13.67;13.67;;;;;;;;5067005;28;45280;-80
2024/01/12 02:26:17;;;;;;;;;14.67;9.67;;;;;;;;5067681;28;45209;-80
2024/01/12 02:28:42;;;;;;;;;18.33;15.33;;;;;;;;5067379;28;45523;-80
2024/01/12 02:31:07;;;;;;;;;15.00;14.67;;;;;;;;5065705;28;45223;-80
2024/01/12 02:33:33;;;;;;;;;16.67;16.67;;;;;;;;5069765;28;45380;-80
2024/01/12 02:35:58;;;;;;;;;13.67;13.33;;;;;;;;5069698;28;45607;-80
2024/01/12 02:38:23;;;;;;;;;18.25;16.75;;;;;;;;5069504;28;45371;-80
2024/01/12 02:40:48;;;;;;;;;17.50;17.25;;;;;;;;5071168;28;45486;-79
2024/01/12 02:43:13;;;;;;;;;19.67;17.67;;;;;;;;5072006;28;45308;-80
2024/01/12 02:45:38;;;;;;;;;17.50;15.75;;;;;;;;5069639;28;45466;-79
2024/01/12 02:48:04;;;;;;;;;22.75;19.00;;;;;;;;5049968;28;46961;-80
2024/01/12 02:50:29;;;;;;;;;19.25;16.25;;;;;;;;5050246;28;45683;-80
2024/01/12 02:52:54;;;;;;;;;16.75;16.25;;;;;;;;5068491;28;45289;-79
2024/01/12 02:55:19;;;;;;;;;22.25;17.00;;;;;;;;5048051;28;47025;-79
2024/01/12 02:57:45;;;;;;;;;22.00;19.25;;;;;;;;5050628;28;47273;-78
2024/01/12 03:00:10;;;;;;;;;25.25;23.00;;;;;;;;5069024;28;45284;-79
2024/01/12 03:02:35;;;;;;;;;23.75;20.00;;;;;;;;5050066;28;45394;-79
2024/01/12 03:05:01;;;;;;;;;30.50;26.75;;;;;;;;5065984;28;45627;-79
2024/01/12 03:07:26;;;;;;;;;22.00;22.00;;;;;;;;5067827;28;45545;-80
2024/01/12 03:09:52;;;;;;;;;28.25;25.25;;;;;;;;5068247;28;45302;-79
2024/01/12 03:12:17;;;;;;;;;28.25;22.75;;;;;;;;5067642;28;45351;-79
2024/01/12 03:14:42;;;;;;;;;29.75;26.00;;;;;;;;5068302;28;45501;-79
2024/01/12 03:17:07;;;;;;;;;27.50;24.25;;;;;;;;5069006;28;45343;-79
2024/01/12 03:19:33;;;;;;;;;26.50;26.25;;;;;;;;5067785;28;45774;-79
2024/01/12 03:21:58;;;;;;;;;27.75;23.75;;;;;;;;5072431;28;45250;-79
2024/01/12 03:24:23;;;;;;;;;25.75;24.75;;;;;;;;5050169;28;47458;-78
2024/01/12 03:26:48;;;;;;;;;30.25;26.75;;;;;;;;5053769;28;47103;-79
2024/01/12 03:29:14;;;;;;;;;27.00;26.25;;;;;;;;5068067;28;45325;-79
2024/01/12 03:31:40;;;;;;;;;26.75;24.50;;;;;;;;5052577;28;45251;-78
2024/01/12 03:34:05;;;;;;;;;24.50;24.25;;;;;;;;5048550;28;45884;-79
2024/01/12 03:36:30;;;;;;;;;32.50;28.25;;;;;;;;5052866;28;48599;-79
2024/01/12 03:38:55;;;;;;;;;30.00;27.50;;;;;;;;5052847;28;45276;-80
2024/01/12 03:41:21;;;;;;;;;28.00;24.75;;;;;;;;5069970;28;45284;-79
2024/01/12 03:43:46;;;;;;;;;25.00;21.50;;;;;;;;5054357;28;45796;-80
2024/01/12 03:46:11;;;;;;;;;27.50;25.25;;;;;;;;5053748;28;47269;-80
2024/01/12 03:48:36;;;;;;;;;25.25;25.25;;;;;;;;5071152;28;45269;-79
2024/01/12 03:51:02;;;;;;;;;29.25;24.75;;;;;;;;5071157;28;45200;-79
2024/01/12 03:53:27;;;;;;;;;31.00;25.25;;;;;;;;5052733;28;46462;-80
2024/01/12 03:55:52;;;;;;;;;32.25;30.50;;;;;;;;5071980;28;46022;-80
2024/01/12 03:58:17;;;;;;;;;26.75;26.75;;;;;;;;5051252;28;45474;-80
2024/01/12 04:00:42;;;;;;;;;26.50;25.00;;;;;;;;5049705;28;45228;-80
2024/01/12 04:03:07;;;;;;;;;25.00;21.50;;;;;;;;5052636;28;46116;-80
2024/01/12 04:05:33;;;;;;;;;28.25;25.00;;;;;;;;5071253;28;46075;-80
2024/01/12 04:07:58;;;;;;;;;22.25;20.50;;;;;;;;5051255;28;46018;-80
2024/01/12 04:10:23;;;;;;;;;22.50;20.50;;;;;;;;5052509;28;45351;-80
2024/01/12 04:12:48;;;;;;;;;25.50;21.75;;;;;;;;5051280;28;45766;-79
2024/01/12 04:15:13;;;;;;;;;26.75;22.50;;;;;;;;5072255;28;46270;-80
2024/01/12 04:17:39;;;;;;;;;27.25;27.25;;;;;;;;5071116;28;45387;-80
2024/01/12 04:20:04;;;;;;;;;22.00;21.50;;;;;;;;5051734;28;45398;-80
2024/01/12 04:22:29;;;;;;;;;25.00;20.75;;;;;;;;5071747;28;45382;-80
2024/01/12 04:24:55;;;;;;;;;23.50;20.25;;;;;;;;5070673;28;45696;-80
2024/01/12 04:27:20;;;;;;;;;28.25;25.25;;;;;;;;5050373;28;45386;-80
2024/01/12 04:29:45;;;;;;;;;22.25;20.00;;;;;;;;5049378;28;45377;-80
2024/01/12 04:32:10;;;;;;;;;23.00;23.00;;;;;;;;5048894;28;46321;-80
2024/01/12 04:34:36;;;;;;;;;28.00;25.75;;;;;;;;5063658;28;46599;-80
2024/01/12 04:37:01;;;;;;;;;28.75;26.75;;;;;;;;5063006;28;45347;-80
2024/01/12 04:39:27;;;;;;;;;24.50;20.25;;;;;;;;5064079;28;45255;-80
2024/01/12 04:41:52;;;;;;;;;19.25;18.00;;;;;;;;5061239;28;45324;-81
2024/01/12 04:44:17;;;;;;;;;26.00;26.00;;;;;;;;5043379;28;48213;-80
2024/01/12 04:46:42;;;;;;;;;24.50;22.00;;;;;;;;5061187;28;45339;-80
2024/01/12 04:49:08;;;;;;;;;22.25;22.25;;;;;;;;5042044;28;45305;-80
2024/01/12 04:51:33;;;;;;;;;27.50;27.50;;;;;;;;5041935;28;45930;-79
2024/01/12 04:53:58;;;;;;;;;27.00;23.75;;;;;;;;5041400;28;46963;-80
2024/01/12 04:56:24;;;;;;;;;26.50;23.25;;;;;;;;5041731;28;45311;-80
2024/01/12 04:58:49;;;;;;;;;29.00;27.00;;;;;;;;5059998;28;45237;-80
2024/01/12 05:01:14;;;;;;;;;30.75;29.00;;;;;;;;5059925;28;45555;-80
2024/01/12 05:03:40;;;;;;;;;23.75;23.50;;;;;;;;5041663;28;46941;-80
2024/01/12 05:06:06;;;;;;;;;27.50;23.50;;;;;;;;5059913;28;45197;-80
2024/01/12 05:08:33;;;;;;;;;32.75;29.00;;;;;;;;5040364;28;45440;-80
2024/01/12 05:10:58;;;;;;;;;31.50;31.50;;;;;;;;5040989;28;46316;-80
2024/01/12 05:13:24;;;;;;;;;36.75;31.75;;;;;;;;5039963;28;47286;-80
2024/01/12 05:15:49;;;;;;;;;31.75;27.00;;;;;;;;5059291;28;45361;-80
2024/01/12 05:18:14;;;;;;;;;33.75;31.75;;;;;;;;5059852;28;45446;-80
2024/01/12 05:20:39;;;;;;;;;33.50;31.25;;;;;;;;5059415;28;45572;-80
2024/01/12 05:23:05;;;;;;;;;28.00;26.25;;;;;;;;5059576;28;46280;-80
2024/01/12 05:25:30;;;;;;;;;35.50;29.50;;;;;;;;5041253;28;46030;-80
2024/01/12 05:27:55;;;;;;;;;33.75;28.50;;;;;;;;5059613;28;45351;-80
2024/01/12 05:30:20;;;;;;;;;29.75;27.25;;;;;;;;5041359;28;45877;-80
2024/01/12 05:32:46;;;;;;;;;38.00;34.50;;;;;;;;5059321;28;45291;-80
2024/01/12 05:35:11;;;;;;;;;29.75;25.75;;;;;;;;5059352;28;45356;-80
2024/01/12 05:37:36;;;;;;;;;34.25;30.25;;;;;;;;5059542;28;45410;-80
2024/01/12 05:40:01;;;;;;;;;39.00;33.75;;;;;;;;5059038;28;45364;-80
2024/01/12 05:42:26;;;;;;;;;37.50;32.25;;;;;;;;5040751;28;47169;-81
2024/01/12 05:44:51;;;;;;;;;23.75;22.00;;;;;;;;5041092;28;46023;-81
2024/01/12 05:47:17;;;;;;;;;32.75;24.50;;;;;;;;5059583;28;45316;-80
2024/01/12 05:49:42;;;;;;;;;24.50;23.00;;;;;;;;5059048;28;45351;-80
2024/01/12 05:52:07;;;;;;;;;26.00;25.00;;;;;;;;5058897;28;45300;-79
2024/01/12 05:54:32;;;;;;;;;34.00;29.25;;;;;;;;5039852;28;45549;-80
2024/01/12 05:56:57;;;;;;;;;29.25;27.25;;;;;;;;5054195;28;45375;-80
2024/01/12 05:59:22;;;;;;;;;33.75;26.75;;;;;;;;5057947;28;45415;-81
2024/01/12 06:01:48;;;;;;;;;30.50;27.75;;;;;;;;5058234;28;45549;-81
2024/01/12 06:04:13;;;;;;;;;26.00;25.25;;;;;;;;5058957;28;45391;-81
2024/01/12 06:06:41;;;;;;;;;22.25;19.00;;;;;;;;5061039;28;45502;-80
2024/01/12 06:09:06;;;;;;;;;35.25;33.00;;;;;;;;5062358;28;45241;-80
2024/01/12 06:11:31;;;;;;;;;34.25;28.50;;;;;;;;5045417;28;45516;-79
2024/01/12 06:13:56;;;;;;;;;34.25;28.00;;;;;;;;5036961;28;45264;-79
2024/01/12 06:16:22;;;;;;;;;27.75;26.00;;;;;;;;5061668;28;45255;-80
2024/01/12 06:18:47;;;;;;;;;33.00;26.50;;;;;;;;5044022;28;46078;-79
2024/01/12 06:21:12;;;;;;;;;30.25;27.50;;;;;;;;5043699;28;47008;-79
2024/01/12 06:23:38;;;;;;;;;32.50;29.75;;;;;;;;5061622;28;45166;-80
2024/01/12 06:26:04;;;;;;;;;25.00;20.25;;;;;;;;5061741;28;45404;-80
2024/01/12 06:28:29;;;;;;;;;31.50;30.00;;;;;;;;5061523;28;46376;-80
2024/01/12 06:30:54;;;;;;;;;27.50;26.00;;;;;;;;5061913;28;45400;-80
2024/01/12 06:33:19;;;;;;;;;31.25;30.25;;;;;;;;5061783;28;45516;-80
2024/01/12 06:35:45;;;;;;;;;31.25;26.50;;;;;;;;5062286;28;45240;-80
2024/01/12 06:38:10;;;;;;;;;27.00;26.50;;;;;;;;5061875;28;45539;-81
2024/01/12 06:40:36;;;;;;;;;25.50;22.25;;;;;;;;5061829;28;45272;-80
2024/01/12 06:43:01;;;;;;;;;32.75;28.50;;;;;;;;5061657;28;45548;-80
2024/01/12 06:45:26;;;;;;;;;27.50;24.75;;;;;;;;5062089;28;45339;-80
2024/01/12 06:47:51;;;;;;;;;32.25;28.75;;;;;;;;5061588;28;45407;-79
2024/01/12 06:50:17;;;;;;;;;33.75;30.25;;;;;;;;5061652;28;45354;-79
2024/01/12 06:52:42;;;;;;;;;28.00;27.00;;;;;;;;5061220;28;45443;-79
2024/01/12 06:55:07;;;;;;;;;31.75;25.00;;;;;;;;5061791;28;45358;-79
2024/01/12 06:57:32;;;;;;;;;31.75;29.00;;;;;;;;5055326;28;45390;-79
2024/01/12 06:59:58;;;;;;;;;26.25;22.75;;;;;;;;5063934;28;48148;-82
2024/01/12 07:02:23;;;;;;;;;26.25;22.75;;;;;;;;5064355;28;45913;-78
2024/01/12 07:04:48;;;;;;;;;30.25;24.75;;;;;;;;5081944;28;45359;-79
2024/01/12 07:07:13;;;;;;;;;21.75;18.75;;;;;;;;5081736;28;45288;-78
2024/01/12 07:09:39;;;;;;;;;31.00;28.25;;;;;;;;5081643;28;46326;-78
2024/01/12 07:12:04;;;;;;;;;32.00;30.75;;;;;;;;5081724;28;45225;-79
2024/01/12 07:14:29;;;;;;;;;25.00;23.25;;;;;;;;5081657;28;45343;-78
2024/01/12 07:16:55;;;;;;;;;18.50;18.50;;;;;;;;5081304;28;45526;-79
2024/01/12 07:19:20;;;;;;;;;33.50;27.75;;;;;;;;5080697;28;46706;-76
2024/01/12 07:21:45;;;;;;;;;34.00;28.00;;;;;;;;5081592;28;45461;-77
2024/01/12 07:24:11;;;;;;;;;33.50;29.75;;;;;;;;5081290;28;45312;-76
2024/01/12 07:26:36;;;;;;;;;32.25;31.00;;;;;;;;5081593;28;46040;-77
2024/01/12 07:29:02;;;;;;;;;33.50;24.25;;;;;;;;5081597;28;46289;-76
2024/01/12 07:31:27;;;;;;;;;36.00;30.00;;;;;;;;5062074;28;45328;-76
2024/01/12 07:33:52;;;;;;;;;31.75;25.25;;;;;;;;5051713;28;45359;-76
2024/01/12 07:36:17;;;;;;;;;27.00;23.25;;;;;;;;5076549;28;45238;-76
2024/01/12 07:38:42;;;;;;;;;21.25;19.75;;;;;;;;5058418;28;47385;-76
2024/01/12 07:41:08;;;;;;;;;30.00;28.25;;;;;;;;5041875;28;45339;-76
2024/01/12 07:43:33;;;;;;;;;31.25;28.50;;;;;;;;5059752;28;45319;-76
2024/01/12 07:45:59;;;;;;;;;29.25;24.25;;;;;;;;5042864;28;46197;-76
2024/01/12 07:48:24;;;;;;;;;26.00;26.00;;;;;;;;5060622;28;45371;-76
2024/01/12 07:50:50;;;;;;;;;28.75;27.75;;;;;;;;5060748;28;45372;-76
2024/01/12 07:53:15;;;;;;;;;33.25;30.00;;;;;;;;5060229;28;45268;-76
2024/01/12 07:55:40;;;;;;;;;24.00;22.25;;;;;;;;5060029;28;45359;-77
2024/01/12 07:58:05;;;;;;;;;34.75;26.00;;;;;;;;5042127;28;48355;-77
2024/01/12 08:00:30;;;;;;;;;33.00;31.00;;;;;;;;5060071;28;45304;-76
2024/01/12 08:02:56;;;;;;;;;31.75;27.50;;;;;;;;5060627;28;45320;-76
2024/01/12 08:05:24;;;;;;;;;30.75;29.00;;;;;;;;5041832;28;45805;-76
2024/01/12 08:07:50;;;;;;;;;28.25;26.00;;;;;;;;5060274;28;45546;-76
2024/01/12 08:10:15;;;;;;;;;27.00;21.00;;;;;;;;5059712;28;45393;-76
2024/01/12 08:12:41;;;;;;;;;34.25;28.00;;;;;;;;5060449;28;45357;-76
2024/01/12 08:15:09;;;;;;;;;24.75;24.50;;;;;;;;5059967;28;45409;-77
2024/01/12 08:17:34;;;;;;;;;24.50;21.75;;;;;;;;5060010;28;45419;-76
2024/01/12 08:19:59;;;;;;;;;19.25;16.75;;;;;;;;5059903;28;45320;-76
2024/01/12 08:22:24;;;;;;;;;22.00;19.25;;;;;;;;5060428;28;45532;-76
2024/01/12 08:24:49;;;;;;;;;22.25;20.25;;;;;;;;5059587;28;45627;-76
2024/01/12 08:27:15;;;;;;;;;34.25;30.50;;;;;;;;5060145;28;45473;-76
2024/01/12 08:29:41;;;;;;;;;31.00;30.00;;;;;;;;5059614;28;45398;-77
2024/01/12 08:32:06;;;;;;;;;29.00;25.00;;;;;;;;5042368;28;45528;-77
2024/01/12 08:34:31;;;;;;;;;35.75;32.50;;;;;;;;5045497;28;45490;-77
2024/01/12 08:36:58;;;;;;;;;27.75;25.00;;;;;;;;5059413;28;45948;-77
2024/01/12 08:39:23;;;;;;;;;27.75;25.75;;;;;;;;5047700;28;45307;-78
2024/01/12 08:41:48;;;;;;;;;29.50;27.25;;;;;;;;5040764;28;45280;-78
2024/01/12 08:44:14;;;;;;;;;27.25;27.25;;;;;;;;5054318;28;45433;-78
2024/01/12 08:46:39;;;;;;;;;24.50;24.25;;;;;;;;5059275;28;45369;-77
2024/01/12 08:49:04;;;;;;;;;27.25;24.50;;;;;;;;5058898;28;45398;-78
2024/01/12 08:51:29;;;;;;;;;26.00;25.25;;;;;;;;5059156;28;45305;-77
2024/01/12 08:53:55;;;;;;;;;32.50;28.50;;;;;;;;5058155;28;45272;-76
2024/01/12 08:56:20;;;;;;;;;34.75;29.75;;;;;;;;5058689;28;45332;-77
2024/01/12 08:58:45;;;;;;;;;34.25;28.50;;;;;;;;5058691;28;45344;-77
2024/01/12 09:01:11;;;;;;;;;34.00;29.00;;;;;;;;5041082;28;45348;-78
2024/01/12 09:03:37;;;;;;;;;29.75;28.00;;;;;;;;5040734;28;47415;-78
2024/01/12 09:06:02;;;;;;;;;26.75;25.25;;;;;;;;5040006;28;47068;-77
2024/01/12 09:08:28;;;;;;;;;35.00;27.00;;;;;;;;5039766;28;45416;-77
2024/01/12 09:10:53;;;;;;;;;35.50;31.75;;;;;;;;5058770;28;45509;-78
2024/01/12 09:13:18;;;;;;;;;28.00;26.50;;;;;;;;5058653;28;45539;-78
2024/01/12 09:15:43;;;;;;;;;28.25;28.25;;;;;;;;5058944;28;45986;-79
2024/01/12 09:18:09;;;;;;;;;32.25;28.50;;;;;;;;5039240;28;45498;-79
2024/01/12 09:20:34;;;;;;;;;41.25;34.25;;;;;;;;5040506;28;45693;-79
2024/01/12 09:22:59;;;;;;;;;31.75;29.75;;;;;;;;5057648;28;45475;-79
2024/01/12 09:25:25;;;;;;;;;31.33;28.67;;;;;;;;5056933;28;45434;-79
2024/01/12 09:27:53;;;;;;;;;32.25;25.75;;;;;;;;5058700;28;45402;-78
2024/01/12 09:30:18;;;;;;;;;30.00;28.75;;;;;;;;5057710;28;45674;-78
2024/01/12 09:32:44;;;;;;;;;32.67;26.67;;;;;;;;5057984;28;45573;-80
2024/01/12 09:35:09;;;;;;;;;34.50;30.25;;;;;;;;5058257;28;45185;-80
2024/01/12 09:37:34;;;;;;;;;27.50;25.00;;;;;;;;5057659;28;45281;-79
2024/01/12 09:39:59;;;;;;;;;36.75;30.00;;;;;;;;5039174;28;45522;-78
2024/01/12 09:42:29;;;;;;;;;36.75;30.25;;;;;;;;5061483;28;45656;-78
2024/01/12 09:44:55;;;;;;;;;31.25;27.75;;;;;;;;5062259;28;45398;-78
2024/01/12 09:47:20;;;;;;;;;25.00;22.25;;;;;;;;5061797;28;45445;-76
2024/01/12 09:49:45;;;;;;;;;30.25;27.00;;;;;;;;5063216;28;45398;-78
2024/01/12 09:52:10;;;;;;;;;35.50;31.25;;;;;;;;5061029;28;45686;-79
2024/01/12 09:54:36;;;;;;;;;26.00;24.00;;;;;;;;5061145;28;45404;-78
2024/01/12 09:57:02;;;;;;;;;29.75;26.50;;;;;;;;5061979;28;45408;-80
2024/01/12 09:59:28;;;;;;;;;31.00;26.75;;;;;;;;5044002;28;45429;-78
2024/01/12 10:01:54;;;;;;;;;29.50;22.00;;;;;;;;5063324;28;45548;-78
2024/01/12 10:04:19;;;;;;;;;29.67;26.00;;;;;;;;5057600;28;45263;-78
2024/01/12 10:06:44;;;;;;;;;30.00;26.50;;;;;;;;5060342;28;45280;-76
2024/01/12 10:09:09;;;;;;;;;27.00;25.25;;;;;;;;5063357;28;45265;-78
2024/01/12 10:11:35;;;;;;;;;26.25;24.50;;;;;;;;5061574;28;45419;-78
2024/01/12 10:14:00;;;;;;;;;25.00;25.00;;;;;;;;5051533;28;45505;-78
2024/01/12 10:16:31;;;;;;;;;31.25;28.75;;;;;;;;5053568;28;45303;-79
2024/01/12 10:18:57;;;;;;;;;31.00;31.00;;;;;;;;5060996;28;45392;-81
2024/01/12 10:21:23;;;;;;;;;31.00;27.00;;;;;;;;5062007;28;45577;-80
2024/01/12 10:23:48;;;;;;;;;33.67;26.67;;;;;;;;5061139;28;46107;-79
2024/01/12 10:26:15;;;;;;;;;34.75;32.50;;;;;;;;5043312;28;45793;-79
2024/01/12 10:28:41;;;;;;;;;37.75;32.00;;;;;;;;5061064;28;45473;-80
2024/01/12 10:31:09;;;;;;;;;27.75;26.50;;;;;;;;5061438;28;45436;-78
2024/01/12 10:33:35;;;;;;;;;33.00;29.00;;;;;;;;5061742;28;45431;-79
2024/01/12 10:36:21;;;;;;;;;32.00;28.25;;;;;;;;5043217;28;45474;-79
2024/01/12 10:38:47;;;;;;;;;37.00;31.25;;;;;;;;5061970;28;45382;-81
2024/01/12 10:41:13;;;;;;;;;32.50;29.00;;;;;;;;5060773;28;45521;-81
2024/01/12 10:43:38;;;;;;;;;35.75;33.75;;;;;;;;5061581;28;45384;-80
2024/01/12 10:46:16;;;;;;;;;27.50;24.75;;;;;;;;5060681;28;45296;-80
2024/01/12 10:48:46;;;;;;;;;27.50;25.50;;;;;;;;5060933;28;45435;-81
2024/01/12 10:51:13;;;;;;;;;29.00;28.75;;;;;;;;5060927;28;45476;-80
2024/01/12 10:53:41;;;;;;;;;49.00;39.75;;;;;;;;5042094;28;47230;-79
2024/01/12 10:56:07;;;;;;;;;28.50;28.50;;;;;;;;5061482;28;45342;-81
2024/01/12 10:58:32;;;;;;;;;27.33;23.33;;;;;;;;5042936;28;45260;-78
2024/01/12 11:00:57;;;;;;;;;21.50;19.00;;;;;;;;5042422;28;45209;-80
2024/01/12 11:03:23;;;;;;;;;34.75;33.00;;;;;;;;5040726;28;46154;-79
2024/01/12 11:05:48;;;;;;;;;26.33;23.33;;;;;;;;5042563;28;45328;-79
2024/01/12 11:08:14;;;;;;;;;22.00;19.33;;;;;;;;5041238;28;45374;-81
2024/01/12 11:10:42;;;;;;;;;36.75;31.00;;;;;;;;5062495;28;45552;-79
2024/01/12 11:13:13;;;;;;;;;32.00;30.00;;;;;;;;5060923;28;46322;-80
2024/01/12 11:15:40;;;;;;;;;34.00;31.50;;;;;;;;5061404;28;45782;-80
2024/01/12 11:18:06;;;;;;;;;25.50;23.50;;;;;;;;5061310;28;45319;-79
2024/01/12 11:20:31;;;;;;;;;32.25;27.50;;;;;;;;5060759;28;45446;-79
2024/01/12 11:22:58;;;;;;;;;24.75;22.00;;;;;;;;5062002;28;46400;-80
2024/01/12 11:25:23;;;;;;;;;32.00;25.75;;;;;;;;5044846;28;45670;-80
2024/01/12 11:27:50;;;;;;;;;29.25;27.50;;;;;;;;5043667;28;45331;-79
2024/01/12 11:30:19;;;;;;;;;32.50;29.50;;;;;;;;5069391;28;45517;-80
2024/01/12 11:32:45;;;;;;;;;30.50;29.25;;;;;;;;5067424;28;46410;-80
2024/01/12 11:35:20;;;;;;;;;34.25;31.00;;;;;;;;5065423;28;45355;-80
2024/01/12 11:38:05;;;;;;;;;31.67;25.67;;;;;;;;5062608;28;45399;-80
2024/01/12 11:40:31;;;;;;;;;33.50;30.75;;;;;;;;5060335;28;45605;-79
2024/01/12 11:42:58;;;;;;;;;27.00;25.00;;;;;;;;5060733;28;46158;-79
2024/01/12 11:45:23;;;;;;;;;27.67;26.67;;;;;;;;5026103;28;46013;-79
2024/01/12 11:47:48;;;;;;;;;29.33;28.00;;;;;;;;5059616;28;45398;-80
2024/01/12 11:50:15;;;;;;;;;27.67;24.67;;;;;;;;5042851;28;45275;-81
2024/01/12 11:52:41;;;;;;;;;35.50;31.00;;;;;;;;5042431;28;47358;-79
2024/01/12 11:55:07;;;;;;;;;39.50;34.50;;;;;;;;5042108;28;45963;-79
2024/01/12 11:57:32;;;;;;;;;29.25;29.25;;;;;;;;5060846;28;45481;-81
2024/01/12 11:59:57;;;;;;;;;30.25;28.75;;;;;;;;5042926;28;46351;-80
2024/01/12 12:02:23;;;;;;;;;23.33;21.00;;;;;;;;5061374;28;45291;-80
2024/01/12 12:04:51;;;;;;;;;29.25;27.25;;;;;;;;5041364;28;45317;-80
2024/01/12 12:07:16;;;;;;;;;30.67;27.00;;;;;;;;5071081;28;45248;-80
2024/01/12 12:09:41;;;;;;;;;28.50;24.50;;;;;;;;5061964;28;45273;-81
2024/01/12 12:12:08;;;;;;;;;35.75;33.50;;;;;;;;5061214;28;45931;-79
2024/01/12 12:14:33;;;;;;;;;35.50;32.50;;;;;;;;5060484;28;45277;-79
2024/01/12 12:16:58;;;;;;;;;44.50;36.25;;;;;;;;5060126;28;45398;-77
2024/01/12 12:19:24;;;;;;;;;36.75;28.50;;;;;;;;5060880;28;45386;-78
2024/01/12 12:21:49;;;;;;;;;30.33;27.67;;;;;;;;5060960;28;45466;-79
2024/01/12 12:24:15;;;;;;;;;35.50;31.50;;;;;;;;5060196;28;45162;-79
2024/01/12 12:26:41;;;;;;;;;35.50;34.50;;;;;;;;5055823;28;45293;-78
2024/01/12 12:29:06;;;;;;;;;39.75;29.50;;;;;;;;5059587;28;45472;-79
2024/01/12 12:31:32;;;;;;;;;40.25;36.50;;;;;;;;5058309;28;45261;-79
2024/01/12 12:33:57;;;;;;;;;37.50;33.25;;;;;;;;5059291;28;45432;-77
2024/01/12 12:36:23;;;;;;;;;36.50;33.25;;;;;;;;5059418;28;45375;-78
2024/01/12 12:38:48;;;;;;;;;49.75;40.25;;;;;;;;5057915;28;45461;-77
2024/01/12 12:41:15;;;;;;;;;38.25;35.75;;;;;;;;5057991;28;46132;-77
2024/01/12 12:43:40;;;;;;;;;29.50;27.00;;;;;;;;5058684;28;46672;-78
2024/01/12 12:46:06;;;;;;;;;36.75;34.50;;;;;;;;5041315;28;45469;-78
2024/01/12 12:48:31;;;;;;;;;32.00;29.50;;;;;;;;5058965;28;45497;-78
2024/01/12 12:50:56;;;;;;;;;33.75;31.75;;;;;;;;5059196;28;45569;-79
2024/01/12 12:53:22;;;;;;;;;41.75;35.75;;;;;;;;5058846;28;45541;-78
2024/01/12 12:55:47;;;;;;;;;33.75;29.75;;;;;;;;5060738;28;45402;-78
2024/01/12 12:58:13;;;;;;;;;41.00;36.50;;;;;;;;5059856;28;45431;-79
2024/01/12 13:00:38;;;;;;;;;42.00;35.50;;;;;;;;5059822;28;45321;-79
2024/01/12 13:03:04;;;;;;;;;33.00;29.25;;;;;;;;5060211;28;45436;-80
2024/01/12 13:05:30;;;;;;;;;36.00;32.75;;;;;;;;5059775;28;45457;-80
2024/01/12 13:07:55;;;;;;;;;38.25;34.75;;;;;;;;5059590;28;45209;-79
2024/01/12 13:10:21;;;;;;;;;36.75;32.75;;;;;;;;5059322;28;45266;-79
2024/01/12 13:12:46;;;;;;;;;37.75;34.50;;;;;;;;5059606;28;45188;-80
2024/01/12 13:15:11;;;;;;;;;40.00;35.25;;;;;;;;5061634;28;45157;-79
2024/01/12 13:17:36;;;;;;;;;27.75;26.00;;;;;;;;5060063;28;45213;-78
2024/01/12 13:20:03;;;;;;;;;42.00;34.50;;;;;;;;5059123;28;45430;-79
2024/01/12 13:22:28;;;;;;;;;38.25;33.25;;;;;;;;5040993;28;45275;-79
2024/01/12 13:24:54;;;;;;;;;44.75;39.25;;;;;;;;5058705;28;45277;-78
2024/01/12 13:27:19;;;;;;;;;41.25;37.50;;;;;;;;5051093;28;45506;-79
2024/01/12 13:29:44;;;;;;;;;37.50;34.75;;;;;;;;5056375;28;46413;-80
2024/01/12 13:32:10;;;;;;;;;36.75;29.00;;;;;;;;5057996;28;45500;-80
2024/01/12 13:34:36;;;;;;;;;35.50;35.00;;;;;;;;5058712;28;45502;-76
2024/01/12 13:37:02;;;;;;;;;40.00;33.00;;;;;;;;5064393;28;45775;-79
2024/01/12 13:39:27;;;;;;;;;40.75;34.75;;;;;;;;5059822;28;45344;-79
2024/01/12 13:41:53;;;;;;;;;34.25;30.75;;;;;;;;5061315;28;46061;-80
2024/01/12 13:44:18;;;;;;;;;35.00;30.75;;;;;;;;5061411;28;45525;-78
2024/01/12 13:46:43;;;;;;;;;36.75;29.50;;;;;;;;5044271;28;47319;-79
2024/01/12 13:49:08;;;;;;;;;34.00;29.75;;;;;;;;5042624;28;47055;-78
2024/01/12 13:51:34;;;;;;;;;37.00;33.75;;;;;;;;5063402;28;45390;-79
2024/01/12 13:54:03;;;;;;;;;34.25;33.75;;;;;;;;5060041;28;45407;-78
2024/01/12 13:56:28;;;;;;;;;38.75;33.25;;;;;;;;5044462;28;47355;-78
2024/01/12 13:58:53;;;;;;;;;32.50;29.75;;;;;;;;5060662;28;45326;-80
2024/01/12 14:01:19;;;;;;;;;39.75;35.00;;;;;;;;5062077;28;45430;-77
2024/01/12 14:03:46;;;;;;;;;47.50;37.25;;;;;;;;5044688;28;45446;-76
2024/01/12 14:06:11;;;;;;;;;48.75;38.00;;;;;;;;5062957;28;45375;-75
2024/01/12 14:08:36;;;;;;;;;40.00;35.00;;;;;;;;5058673;28;46450;-75
2024/01/12 14:11:02;;;;;;;;;44.00;36.00;;;;;;;;5041027;28;46110;-75